Apostle Islands National Lak, Wisconsin
Current Conditions -  °F | °C
As of 4:53 AM on Sunday 26 Oct 2014 (Local Time) from KASX Reporting Station
Clear Clear  
Wind Chill:   Ceiling: Unl
Heat Index:   Visibility: 10mi
Dew Point: -3°   Wind: 6mph
Humidity: 67%   Direction: 210°SSW
Pressure: 29.99"   Gusts: NA
Location:  46.8614°N, 90.9101°W
Report Text: KASX 260953Z AUTO 21005KT 10SM CLR 02/M03 A2999 RMK AO2 SLP160 T00221033
Loading
Personal Weather Stations






























Interactive Weather Map
Tropical Storm Tracking
New forecast layout! Learn more

10-Day Weather Forecast

Advertisements
Track Severe Weather on mobile